UAL4J LOWL-LOWS
Flight info
| Callsign | UAL4J |
|---|---|
| Flight time | 0h 29m |
| Altitude | 12000 |
| Route | LIDSI DCT MATIG |
| Aircraft | B738/M-SDE2E3FGHIRWXY/LB1 |
Departure
| Time | 2026-04-16 11:08 |
|---|---|
| Airport | Linz-Hörsching Airport (LOWL) |
Arrival
| Time | 2026-04-16 11:38 |
|---|---|
| Airport | Salzburg Airport (LOWS) |
| Time | Latitude | Longitude | Altitude | Speed | Heading |
|---|---|---|---|---|---|
| 2026-04-16 10:59 | 48.23809 | 14.19434 | 968 ft | 0 kts | 266° |
| 2026-04-16 11:04 | 48.23809 | 14.19433 | 968 ft | 0 kts | 258° |
| 2026-04-16 11:04 | 48.23806 | 14.19428 | 968 ft | 1 kts | 234° |
| 2026-04-16 11:05 | 48.23795 | 14.19424 | 968 ft | 2 kts | 168° |
| 2026-04-16 11:05 | 48.23778 | 14.19464 | 968 ft | 7 kts | 104° |
| 2026-04-16 11:05 | 48.23753 | 14.19574 | 966 ft | 14 kts | 125° |
| 2026-04-16 11:05 | 48.23654 | 14.19660 | 966 ft | 18 kts | 157° |
| 2026-04-16 11:06 | 48.23515 | 14.19740 | 966 ft | 24 kts | 160° |
| 2026-04-16 11:06 | 48.23378 | 14.19892 | 965 ft | 27 kts | 99° |
| 2026-04-16 11:06 | 48.23374 | 14.20216 | 962 ft | 33 kts | 85° |
| 2026-04-16 11:06 | 48.23380 | 14.20591 | 955 ft | 37 kts | 99° |
| 2026-04-16 11:07 | 48.23392 | 14.20690 | 954 ft | 6 kts | 279° |
| 2026-04-16 11:07 | 48.23388 | 14.20566 | 956 ft | 17 kts | 260° |
| 2026-04-16 11:07 | 48.23374 | 14.20321 | 960 ft | 34 kts | 266° |
| 2026-04-16 11:07 | 48.23342 | 14.19525 | 966 ft | 116 kts | 266° |
| 2026-04-16 11:08 | 48.23283 | 14.17966 | 1056 ft | 176 kts | 266° |
| 2026-04-16 11:08 | 48.23232 | 14.16197 | 2086 ft | 173 kts | 267° |
| 2026-04-16 11:08 | 48.23174 | 14.14453 | 3081 ft | 168 kts | 266° |
| 2026-04-16 11:08 | 48.22894 | 14.12727 | 3590 ft | 188 kts | 244° |
| 2026-04-16 11:09 | 48.22001 | 14.11074 | 4056 ft | 215 kts | 228° |
| 2026-04-16 11:09 | 48.21034 | 14.09363 | 4804 ft | 224 kts | 237° |
| 2026-04-16 11:09 | 48.20248 | 14.07250 | 5473 ft | 238 kts | 250° |
| 2026-04-16 11:09 | 48.19666 | 14.04876 | 6159 ft | 253 kts | 252° |
| 2026-04-16 11:10 | 48.19069 | 14.02364 | 6967 ft | 262 kts | 251° |
| 2026-04-16 11:10 | 48.18413 | 13.99811 | 7874 ft | 268 kts | 250° |
| 2026-04-16 11:10 | 48.17712 | 13.97227 | 8782 ft | 272 kts | 249° |
| 2026-04-16 11:10 | 48.16986 | 13.94601 | 9581 ft | 278 kts | 249° |
| 2026-04-16 11:11 | 48.16257 | 13.91964 | 9941 ft | 278 kts | 249° |
| 2026-04-16 11:11 | 48.15514 | 13.89265 | 10005 ft | 279 kts | 249° |
| 2026-04-16 11:11 | 48.14782 | 13.86595 | 10229 ft | 279 kts | 249° |
| 2026-04-16 11:11 | 48.14048 | 13.83913 | 10235 ft | 279 kts | 249° |
| 2026-04-16 11:12 | 48.13313 | 13.81228 | 10238 ft | 278 kts | 250° |
| 2026-04-16 11:12 | 48.12592 | 13.78553 | 10241 ft | 278 kts | 250° |
| 2026-04-16 11:12 | 48.11865 | 13.75837 | 10239 ft | 279 kts | 250° |
| 2026-04-16 11:12 | 48.11134 | 13.73136 | 10237 ft | 280 kts | 249° |
| 2026-04-16 11:13 | 48.10397 | 13.70435 | 10238 ft | 280 kts | 249° |
| 2026-04-16 11:13 | 48.09668 | 13.67783 | 10239 ft | 280 kts | 249° |
| 2026-04-16 11:13 | 48.08920 | 13.65070 | 10234 ft | 279 kts | 249° |
| 2026-04-16 11:13 | 48.08185 | 13.62407 | 10230 ft | 280 kts | 249° |
| 2026-04-16 11:14 | 48.07444 | 13.59725 | 10228 ft | 279 kts | 249° |
| 2026-04-16 11:14 | 48.06692 | 13.57005 | 10232 ft | 280 kts | 249° |
| 2026-04-16 11:14 | 48.05959 | 13.54334 | 10229 ft | 279 kts | 251° |
| 2026-04-16 11:14 | 48.05431 | 13.51556 | 10195 ft | 279 kts | 261° |
| 2026-04-16 11:15 | 48.05210 | 13.48657 | 9977 ft | 275 kts | 267° |
| 2026-04-16 11:15 | 48.05088 | 13.45820 | 9982 ft | 274 kts | 267° |
| 2026-04-16 11:15 | 48.04933 | 13.43025 | 9972 ft | 268 kts | 265° |
| 2026-04-16 11:15 | 48.04738 | 13.40288 | 9941 ft | 260 kts | 265° |
| 2026-04-16 11:16 | 48.04524 | 13.37639 | 9706 ft | 256 kts | 264° |
| 2026-04-16 11:16 | 48.04299 | 13.34999 | 9379 ft | 254 kts | 264° |
| 2026-04-16 11:16 | 48.04077 | 13.32407 | 9108 ft | 251 kts | 263° |
| 2026-04-16 11:16 | 48.03855 | 13.29820 | 8989 ft | 254 kts | 263° |
| 2026-04-16 11:17 | 48.03627 | 13.27145 | 8974 ft | 262 kts | 263° |
| 2026-04-16 11:17 | 48.03397 | 13.24462 | 8979 ft | 260 kts | 263° |
| 2026-04-16 11:17 | 48.03169 | 13.21797 | 8978 ft | 260 kts | 263° |
| 2026-04-16 11:17 | 48.02939 | 13.19142 | 8982 ft | 252 kts | 263° |
| 2026-04-16 11:18 | 48.02720 | 13.16614 | 8982 ft | 242 kts | 263° |
| 2026-04-16 11:18 | 48.02497 | 13.14169 | 8982 ft | 234 kts | 263° |
| 2026-04-16 11:18 | 48.02191 | 13.11832 | 8964 ft | 226 kts | 253° |
| 2026-04-16 11:18 | 48.01526 | 13.09721 | 8591 ft | 226 kts | 239° |
| 2026-04-16 11:19 | 48.00661 | 13.07780 | 8218 ft | 223 kts | 238° |
| 2026-04-16 11:19 | 47.99819 | 13.05893 | 7811 ft | 220 kts | 239° |
| 2026-04-16 11:19 | 47.98975 | 13.03974 | 7321 ft | 220 kts | 235° |
| 2026-04-16 11:19 | 47.97893 | 13.02417 | 6899 ft | 222 kts | 211° |
| 2026-04-16 11:20 | 47.96403 | 13.01872 | 6575 ft | 221 kts | 181° |
| 2026-04-16 11:20 | 47.94888 | 13.02218 | 6231 ft | 222 kts | 171° |
| 2026-04-16 11:20 | 47.93406 | 13.02701 | 5914 ft | 220 kts | 171° |
| 2026-04-16 11:20 | 47.91907 | 13.03161 | 5677 ft | 215 kts | 172° |
| 2026-04-16 11:21 | 47.90442 | 13.03602 | 5400 ft | 215 kts | 172° |
| 2026-04-16 11:21 | 47.89010 | 13.04037 | 5223 ft | 208 kts | 172° |
| 2026-04-16 11:21 | 47.87631 | 13.04460 | 5107 ft | 197 kts | 172° |
| 2026-04-16 11:21 | 47.86268 | 13.04875 | 4739 ft | 201 kts | 172° |
| 2026-04-16 11:22 | 47.84907 | 13.05288 | 4470 ft | 198 kts | 171° |
| 2026-04-16 11:22 | 47.83580 | 13.05695 | 4222 ft | 190 kts | 171° |
| 2026-04-16 11:22 | 47.82334 | 13.06076 | 3901 ft | 181 kts | 171° |
| 2026-04-16 11:22 | 47.81106 | 13.06449 | 3456 ft | 181 kts | 171° |
| 2026-04-16 11:23 | 47.79879 | 13.06821 | 3079 ft | 180 kts | 171° |
| 2026-04-16 11:23 | 47.78686 | 13.07090 | 2935 ft | 167 kts | 183° |
| 2026-04-16 11:23 | 47.77622 | 13.06603 | 2913 ft | 161 kts | 221° |
| 2026-04-16 11:23 | 47.76951 | 13.05324 | 2792 ft | 154 kts | 248° |
| 2026-04-16 11:24 | 47.76644 | 13.03850 | 2605 ft | 146 kts | 270° |
| 2026-04-16 11:24 | 47.76953 | 13.02476 | 2400 ft | 142 kts | 309° |
| 2026-04-16 11:24 | 47.77669 | 13.01487 | 2110 ft | 140 kts | 327° |
| 2026-04-16 11:24 | 47.78556 | 13.00968 | 2099 ft | 138 kts | 343° |
| 2026-04-16 11:25 | 47.79499 | 13.00505 | 2110 ft | 143 kts | 336° |
| 2026-04-16 11:25 | 47.80421 | 12.99939 | 2110 ft | 142 kts | 336° |
| 2026-04-16 11:25 | 47.81332 | 12.99399 | 2112 ft | 144 kts | 335° |
| 2026-04-16 11:25 | 47.82276 | 12.98851 | 2135 ft | 148 kts | 339° |
| 2026-04-16 11:26 | 47.83258 | 12.98284 | 2271 ft | 155 kts | 336° |
| 2026-04-16 11:26 | 47.84268 | 12.97690 | 2416 ft | 157 kts | 336° |
| 2026-04-16 11:26 | 47.85331 | 12.97069 | 2575 ft | 172 kts | 336° |
| 2026-04-16 11:26 | 47.86503 | 12.96395 | 2835 ft | 185 kts | 338° |
| 2026-04-16 11:27 | 47.87715 | 12.95693 | 3116 ft | 191 kts | 337° |
| 2026-04-16 11:27 | 47.88942 | 12.94966 | 3387 ft | 191 kts | 336° |
| 2026-04-16 11:27 | 47.90190 | 12.94259 | 3663 ft | 192 kts | 338° |
| 2026-04-16 11:27 | 47.91456 | 12.93615 | 3938 ft | 192 kts | 340° |
| 2026-04-16 11:28 | 47.92732 | 12.93024 | 4214 ft | 194 kts | 341° |
| 2026-04-16 11:28 | 47.94046 | 12.92488 | 4498 ft | 196 kts | 343° |
| 2026-04-16 11:28 | 47.95376 | 12.92046 | 4776 ft | 199 kts | 346° |
| 2026-04-16 11:28 | 47.96753 | 12.91700 | 4990 ft | 202 kts | 349° |
| 2026-04-16 11:29 | 47.98163 | 12.91864 | 4991 ft | 207 kts | 18° |
| 2026-04-16 11:29 | 47.99313 | 12.93137 | 4994 ft | 212 kts | 46° |
| 2026-04-16 11:29 | 47.99972 | 12.95104 | 4985 ft | 215 kts | 79° |
| 2026-04-16 11:29 | 47.99825 | 12.97202 | 4987 ft | 201 kts | 112° |
| 2026-04-16 11:30 | 47.99154 | 12.99039 | 4990 ft | 201 kts | 127° |
| 2026-04-16 11:30 | 47.98150 | 13.00449 | 4982 ft | 197 kts | 159° |
| 2026-04-16 11:30 | 47.96845 | 13.00816 | 4989 ft | 191 kts | 181° |
| 2026-04-16 11:30 | 47.95572 | 13.00998 | 5001 ft | 179 kts | 173° |
| 2026-04-16 11:31 | 47.94349 | 13.01445 | 4989 ft | 181 kts | 167° |
| 2026-04-16 11:31 | 47.93148 | 13.01986 | 4957 ft | 179 kts | 166° |
| 2026-04-16 11:31 | 47.91951 | 13.02532 | 4909 ft | 178 kts | 166° |
| 2026-04-16 11:31 | 47.90767 | 13.03068 | 4860 ft | 177 kts | 167° |
| 2026-04-16 11:32 | 47.89596 | 13.03595 | 4812 ft | 176 kts | 166° |
| 2026-04-16 11:32 | 47.88423 | 13.04124 | 4761 ft | 176 kts | 166° |
| 2026-04-16 11:32 | 47.87255 | 13.04600 | 4720 ft | 168 kts | 171° |
| 2026-04-16 11:32 | 47.86095 | 13.04956 | 4642 ft | 171 kts | 173° |
| 2026-04-16 11:33 | 47.84930 | 13.05289 | 4561 ft | 171 kts | 172° |
| 2026-04-16 11:33 | 47.83758 | 13.05639 | 4452 ft | 168 kts | 171° |
| 2026-04-16 11:33 | 47.82635 | 13.05983 | 4314 ft | 163 kts | 172° |
| 2026-04-16 11:33 | 47.81512 | 13.06325 | 4114 ft | 164 kts | 172° |
| 2026-04-16 11:34 | 47.80407 | 13.06662 | 3878 ft | 163 kts | 172° |
| 2026-04-16 11:34 | 47.79290 | 13.07029 | 3648 ft | 165 kts | 168° |
| 2026-04-16 11:34 | 47.78189 | 13.07485 | 3413 ft | 164 kts | 166° |
| 2026-04-16 11:34 | 47.77094 | 13.07940 | 3179 ft | 164 kts | 166° |
| 2026-04-16 11:35 | 47.75982 | 13.08384 | 2947 ft | 165 kts | 169° |
| 2026-04-16 11:35 | 47.74874 | 13.08655 | 2715 ft | 162 kts | 183° |
| 2026-04-16 11:35 | 47.73864 | 13.08124 | 2495 ft | 151 kts | 228° |
| 2026-04-16 11:35 | 47.73400 | 13.06838 | 2316 ft | 143 kts | 265° |
| 2026-04-16 11:36 | 47.73680 | 13.05480 | 2193 ft | 141 kts | 313° |
| 2026-04-16 11:36 | 47.74392 | 13.04450 | 2076 ft | 144 kts | 317° |
| 2026-04-16 11:36 | 47.75074 | 13.03375 | 1970 ft | 141 kts | 315° |
| 2026-04-16 11:36 | 47.75849 | 13.02614 | 1928 ft | 136 kts | 336° |
| 2026-04-16 11:37 | 47.76748 | 13.02067 | 1755 ft | 140 kts | 335° |
| 2026-04-16 11:37 | 47.77637 | 13.01491 | 1624 ft | 139 kts | 338° |
| 2026-04-16 11:37 | 47.78530 | 13.00915 | 1442 ft | 139 kts | 339° |
| 2026-04-16 11:37 | 47.79356 | 13.00406 | 1409 ft | 102 kts | 335° |
| 2026-04-16 11:38 | 47.79737 | 13.00156 | 1407 ft | 13 kts | 334° |